Time;durP1;ratioP1;P1;durP2;ratioP2;P2;SDS_P1;SDS_P2;PMS_P1;PMS_P2;Temp;Humidity;BMP_temperature;BMP_pressure;BME280_temperature;BME280_humidity;BME280_pressure;Samples;Min_cycle;Max_cycle;Signal;HPM_P1;HPM_P2
2021/06/01 00:01:33;;;;;;;10.18;2.30;;;;;;;23.54;43.27;99791.25;4484656;32;33998;-66
2021/06/01 00:04:01;;;;;;;7.95;2.15;;;;;;;23.54;43.23;99793.16;4484800;32;33621;-66
2021/06/01 00:06:28;;;;;;;6.57;2.10;;;;;;;23.54;43.26;99787.72;4484876;32;33793;-67
2021/06/01 00:08:56;;;;;;;13.38;2.78;;;;;;;23.53;43.05;99789.59;4484615;32;33793;-66
2021/06/01 00:11:24;;;;;;;10.35;2.53;;;;;;;23.54;43.23;99787.72;4484843;32;34923;-67
2021/06/01 00:13:52;;;;;;;13.13;2.30;;;;;;;23.53;43.31;99789.59;4484708;32;33415;-67
2021/06/01 00:16:20;;;;;;;9.15;2.33;;;;;;;23.54;43.29;99785.81;4484555;32;34503;-66
2021/06/01 00:18:48;;;;;;;12.50;2.47;;;;;;;23.53;43.31;99788.78;4484550;32;33828;-66
2021/06/01 00:21:15;;;;;;;11.40;2.67;;;;;;;23.53;43.26;99786.88;4484713;32;34532;-67
2021/06/01 00:23:43;;;;;;;9.05;2.08;;;;;;;23.53;43.20;99788.78;4484702;32;33517;-66
2021/06/01 00:26:11;;;;;;;7.78;2.50;;;;;;;23.53;43.32;99786.06;4483405;32;33695;-66
2021/06/01 00:28:39;;;;;;;11.50;2.10;;;;;;;23.53;43.27;99789.59;4484764;32;33960;-66
2021/06/01 00:31:07;;;;;;;8.50;2.28;;;;;;;23.52;43.26;99793.41;4484750;32;33756;-66
2021/06/01 00:33:35;;;;;;;10.68;2.10;;;;;;;23.53;43.21;99777.88;4484224;32;33235;-67
2021/06/01 00:36:03;;;;;;;10.57;2.47;;;;;;;23.53;43.15;99789.59;4484621;32;33754;-68
2021/06/01 00:38:31;;;;;;;9.98;2.72;;;;;;;23.53;43.19;99791.50;4484543;32;33827;-68
2021/06/01 00:40:59;;;;;;;8.73;2.45;;;;;;;23.53;43.15;99786.06;4484703;32;33815;-67
2021/06/01 00:43:26;;;;;;;9.93;2.30;;;;;;;23.51;43.19;99793.63;4484555;32;33280;-67
2021/06/01 00:45:54;;;;;;;11.65;2.37;;;;;;;23.51;43.17;99786.28;4484594;32;33874;-67
2021/06/01 00:48:22;;;;;;;8.98;1.95;;;;;;;23.50;43.15;99792.81;4484554;32;33931;-67
2021/06/01 00:50:49;;;;;;;7.87;1.85;;;;;;;23.50;43.21;99795.53;4484254;32;34703;-66
2021/06/01 00:53:17;;;;;;;8.02;1.95;;;;;;;23.50;43.10;99792.81;4484666;32;33523;-67
2021/06/01 00:55:45;;;;;;;12.23;2.45;;;;;;;23.49;43.07;99799.28;4484611;32;33733;-67
2021/06/01 00:58:13;;;;;;;9.38;2.10;;;;;;;23.49;43.02;99793.84;4484387;32;33942;-65
2021/06/01 01:03:09;;;;;;;12.63;2.40;;;;;;;23.48;42.97;99788.63;4484262;32;33306;-66
2021/06/01 01:05:40;;;;;;;6.28;1.87;;;;;;;23.49;43.04;99799.28;4483262;32;33762;-66
2021/06/01 01:08:21;;;;;;;8.55;2.10;;;;;;;23.49;43.07;99798.47;4468247;32;34967;-66
2021/06/01 01:10:49;;;;;;;5.72;1.98;;;;;;;23.48;43.05;99796.81;4468757;32;33141;-66
2021/06/01 01:13:18;;;;;;;11.93;2.33;;;;;;;23.49;43.20;99793.00;4473926;32;33038;-66
2021/06/01 01:15:46;;;;;;;7.43;2.15;;;;;;;23.48;43.30;99789.47;4483125;32;33673;-66
2021/06/01 01:18:15;;;;;;;8.27;2.33;;;;;;;23.48;43.29;99792.19;4470245;32;33918;-66
2021/06/01 01:20:49;;;;;;;10.23;2.33;;;;;;;23.47;43.26;99789.69;4483143;32;33749;-66
2021/06/01 01:23:17;;;;;;;8.85;2.12;;;;;;;23.48;43.26;99783.19;4483151;32;33331;-66
2021/06/01 01:25:48;;;;;;;11.43;2.30;;;;;;;23.48;43.10;99784.00;4474180;32;34369;-66
2021/06/01 01:28:37;;;;;;;8.57;2.00;;;;;;;23.47;43.37;99787.81;4468568;32;34557;-66
2021/06/01 01:31:14;;;;;;;11.00;1.98;;;;;;;23.49;43.64;99779.41;4466383;32;33682;-66
2021/06/01 01:33:43;;;;;;;8.00;2.33;;;;;;;23.47;43.60;99784.25;4454727;32;33265;-66
2021/06/01 01:36:11;;;;;;;7.40;1.98;;;;;;;23.46;43.63;99788.88;4467218;32;34745;-66
2021/06/01 01:38:39;;;;;;;5.45;1.85;;;;;;;23.46;43.69;99785.31;4468612;32;33911;-67
2021/06/01 01:41:11;;;;;;;7.10;1.92;;;;;;;23.46;43.46;99779.87;4468430;32;34706;-67
2021/06/01 01:43:39;;;;;;;6.03;1.90;;;;;;;23.46;43.48;99788.03;4454799;32;33409;-66
2021/06/01 01:46:12;;;;;;;9.93;2.20;;;;;;;23.45;43.44;99779.00;4467254;32;35069;-67
2021/06/01 01:51:34;;;;;;;9.85;2.25;;;;;;;23.45;43.50;99776.28;4478504;32;33787;-68
2021/06/01 01:54:16;;;;;;;14.80;1.98;;;;;;;23.47;43.39;99779.63;4482816;32;33516;-68
2021/06/01 01:56:46;;;;;;;7.70;1.70;;;;;;;23.46;43.72;99780.69;4482833;32;33640;-68
2021/06/01 01:59:15;;;;;;;7.85;2.08;;;;;;;23.44;43.65;99780.06;4482881;32;33177;-68
2021/06/01 02:01:44;;;;;;;7.32;1.70;;;;;;;23.45;43.62;99781.72;4470140;32;33697;-68
2021/06/01 02:04:12;;;;;;;7.57;1.90;;;;;;;23.46;43.61;99774.44;4484196;32;34105;-67
2021/06/01 02:06:39;;;;;;;7.57;2.30;;;;;;;23.45;43.57;99773.56;4482587;32;33720;-67
2021/06/01 02:09:07;;;;;;;9.38;2.15;;;;;;;23.46;43.45;99771.69;4483957;32;33888;-67
2021/06/01 02:11:35;;;;;;;9.77;1.98;;;;;;;23.45;43.42;99768.12;4480386;32;124631;-68
2021/06/01 02:14:03;;;;;;;4.62;1.45;;;;;;;23.46;43.44;99777.16;4483827;32;34346;-67
2021/06/01 02:16:32;;;;;;;7.43;2.00;;;;;;;23.46;43.33;99779.87;4484223;32;33564;-66
2021/06/01 02:19:01;;;;;;;10.23;3.37;;;;;;;23.44;43.32;99780.06;4484048;32;35336;-68
2021/06/01 02:24:34;;;;;;;7.25;1.85;;;;;;;23.46;43.47;99788.03;4471403;32;33077;-68
2021/06/01 02:27:11;;;;;;;10.30;2.03;;;;;;;23.45;43.47;99787.19;4461205;32;33758;-67
2021/06/01 02:29:59;;;;;;;10.68;2.42;;;;;;;23.47;43.46;99781.53;4483828;32;33996;-68
2021/06/01 02:32:35;;;;;;;14.20;2.17;;;;;;;23.47;43.35;99779.63;4483794;32;33902;-67
2021/06/01 02:35:08;;;;;;;9.90;2.00;;;;;;;23.46;43.42;99782.59;4482600;32;33692;-68
2021/06/01 02:37:38;;;;;;;11.68;2.25;;;;;;;23.44;43.41;99780.06;4482711;32;33789;-67
2021/06/01 02:40:07;;;;;;;8.05;1.87;;;;;;;23.42;43.60;99785.75;4482551;32;33834;-68
2021/06/01 02:42:35;;;;;;;10.75;2.35;;;;;;;23.43;43.58;99779.25;4483408;32;33776;-68
2021/06/01 02:45:03;;;;;;;17.48;2.50;;;;;;;23.44;43.61;99777.34;4482418;32;33466;-68
2021/06/01 02:47:31;;;;;;;13.18;2.15;;;;;;;23.42;43.54;99772.16;4483760;32;33448;-68
2021/06/01 02:49:59;;;;;;;7.05;1.67;;;;;;;23.42;43.53;99774.03;4483479;32;34719;-67
2021/06/01 02:52:26;;;;;;;7.80;2.15;;;;;;;23.42;43.52;99774.03;4482432;32;34871;-67
2021/06/01 02:54:54;;;;;;;4.97;1.83;;;;;;;23.41;43.53;99767.75;4482641;32;33977;-68
2021/06/01 02:57:22;;;;;;;9.65;2.05;;;;;;;23.42;43.52;99768.59;4482061;32;34504;-68
2021/06/01 02:59:49;;;;;;;7.57;2.15;;;;;;;23.41;43.53;99761.50;4482310;32;33845;-68
2021/06/01 03:02:17;;;;;;;6.45;1.95;;;;;;;23.41;43.48;99770.50;4482179;32;34541;-65
2021/06/01 03:04:51;;;;;;;5.78;1.92;;;;;;;23.41;43.35;99766.94;4472236;32;35064;-67
2021/06/01 03:07:19;;;;;;;6.37;2.47;;;;;;;23.41;43.32;99766.94;4480975;32;33827;-66
2021/06/01 03:09:46;;;;;;;6.95;1.90;;;;;;;23.39;43.35;99766.31;4483339;32;34834;-66
2021/06/01 03:12:25;;;;;;;6.75;1.77;;;;;;;23.41;43.29;99772.37;4483189;32;35138;-66
2021/06/01 03:14:53;;;;;;;5.65;1.58;;;;;;;23.40;43.24;99771.53;4483302;32;33240;-65
2021/06/01 03:17:20;;;;;;;5.32;1.92;;;;;;;23.40;43.24;99776.97;4483350;32;33878;-66
2021/06/01 03:19:48;;;;;;;6.75;1.92;;;;;;;23.39;43.23;99779.94;4483123;32;33916;-66
2021/06/01 03:22:16;;;;;;;8.82;1.90;;;;;;;23.38;43.22;99778.28;4483074;32;34044;-67
2021/06/01 03:24:43;;;;;;;5.97;1.92;;;;;;;23.38;43.19;99779.09;4469750;32;33495;-66
2021/06/01 03:27:11;;;;;;;6.60;1.67;;;;;;;23.39;43.29;99785.38;4467420;32;34172;-66
2021/06/01 03:29:39;;;;;;;7.35;1.95;;;;;;;23.40;43.29;99778.84;4467420;32;33947;-66
2021/06/01 03:32:07;;;;;;;7.00;2.22;;;;;;;23.39;43.26;99783.47;4469432;32;33876;-66
2021/06/01 03:34:34;;;;;;;8.57;2.00;;;;;;;23.39;43.37;99786.19;4481547;32;34293;-68
2021/06/01 03:37:02;;;;;;;7.32;1.92;;;;;;;23.40;43.38;99784.31;4482787;32;34730;-67
2021/06/01 03:39:31;;;;;;;6.72;1.77;;;;;;;23.39;43.44;99779.94;4482516;32;33866;-68
2021/06/01 03:41:59;;;;;;;8.45;2.47;;;;;;;23.39;43.42;99780.75;4483034;32;34006;-67
2021/06/01 03:44:27;;;;;;;9.60;1.92;;;;;;;23.39;43.42;99779.94;4482581;32;33289;-66
2021/06/01 03:46:55;;;;;;;13.43;2.20;;;;;;;23.38;43.40;99773.66;4482770;32;33841;-68
2021/06/01 03:49:22;;;;;;;7.15;1.90;;;;;;;23.39;43.38;99774.47;4482717;32;34758;-67
2021/06/01 03:51:50;;;;;;;9.88;1.87;;;;;;;23.39;43.37;99779.94;4482666;32;34507;-68
2021/06/01 03:54:18;;;;;;;7.60;2.30;;;;;;;23.38;43.31;99779.09;4483684;32;33054;-66
2021/06/01 03:56:45;;;;;;;7.10;1.52;;;;;;;23.39;43.20;99786.19;4483524;32;33512;-66
2021/06/01 03:59:13;;;;;;;8.55;2.35;;;;;;;23.38;43.41;99779.09;4483332;32;34096;-66
2021/06/01 04:01:40;;;;;;;10.05;2.17;;;;;;;23.40;43.34;99787.03;4484682;32;33801;-67
2021/06/01 04:04:08;;;;;;;6.53;1.87;;;;;;;23.38;43.31;99787.25;4483996;32;33014;-67
2021/06/01 04:06:36;;;;;;;5.82;1.90;;;;;;;23.38;43.34;99784.53;4482994;32;34688;-66
2021/06/01 04:09:03;;;;;;;9.13;1.60;;;;;;;23.39;43.26;99780.75;4484832;32;34701;-66
2021/06/01 04:11:31;;;;;;;4.62;1.77;;;;;;;23.39;43.45;99785.38;4484447;32;33957;-66
2021/06/01 04:13:59;;;;;;;10.77;1.92;;;;;;;23.39;43.39;99786.19;4484399;32;34345;-67
2021/06/01 04:16:27;;;;;;;6.37;1.50;;;;;;;23.38;43.34;99781.00;4485133;32;34641;-66
2021/06/01 04:18:55;;;;;;;12.30;1.98;;;;;;;23.38;43.31;99775.53;4483828;32;33874;-67
2021/06/01 04:21:23;;;;;;;8.93;1.90;;;;;;;23.39;43.30;99779.94;4484609;32;34542;-67
2021/06/01 04:23:50;;;;;;;7.90;2.25;;;;;;;23.39;43.34;99779.94;4484612;32;34192;-67
2021/06/01 04:26:18;;;;;;;5.90;1.60;;;;;;;23.38;43.28;99778.28;4484686;32;34360;-66
2021/06/01 04:28:45;;;;;;;10.55;2.17;;;;;;;23.38;43.25;99779.09;4484488;32;33911;-67
2021/06/01 04:31:13;;;;;;;7.65;1.73;;;;;;;23.38;43.24;99778.28;4484868;32;33810;-67
2021/06/01 04:33:41;;;;;;;6.53;1.67;;;;;;;23.39;43.39;99779.94;4484820;32;33961;-67
2021/06/01 04:36:09;;;;;;;10.43;1.60;;;;;;;23.39;43.34;99774.47;4484310;32;33892;-66
2021/06/01 04:38:36;;;;;;;8.38;2.25;;;;;;;23.38;43.30;99775.53;4484649;32;33893;-66
2021/06/01 04:41:04;;;;;;;10.70;2.30;;;;;;;23.39;43.53;99774.47;4484517;32;33767;-66
2021/06/01 04:43:31;;;;;;;6.37;1.98;;;;;;;23.38;43.44;99784.53;4482966;32;33287;-67
2021/06/01 04:45:59;;;;;;;9.75;2.28;;;;;;;23.40;43.28;99782.41;4484624;32;33866;-65
2021/06/01 04:48:27;;;;;;;22.73;3.12;;;;;;;23.41;43.29;99780.56;4484476;32;33922;-68
2021/06/01 04:50:54;;;;;;;19.98;2.92;;;;;;;23.41;43.48;99780.56;4484704;32;33686;-66
2021/06/01 04:53:22;;;;;;;16.65;2.75;;;;;;;23.40;42.49;99781.59;4484150;32;33435;-67
2021/06/01 04:55:50;;;;;;;16.50;3.08;;;;;;;23.39;42.05;99783.47;4484613;32;33661;-66
2021/06/01 04:58:17;;;;;;;21.45;2.80;;;;;;;23.38;42.09;99775.53;4483121;32;33796;-66
2021/06/01 05:00:45;;;;;;;18.60;2.85;;;;;;;23.37;42.59;99776.62;4484187;32;34783;-67
2021/06/01 05:03:13;;;;;;;11.48;2.60;;;;;;;23.36;43.14;99778.50;4484280;32;34480;-68
2021/06/01 05:05:40;;;;;;;16.95;3.33;;;;;;;23.35;43.06;99782.25;4483488;32;33731;-68
2021/06/01 05:08:08;;;;;;;15.82;2.60;;;;;;;23.36;42.86;99780.37;4484471;32;33825;-67
2021/06/01 05:10:36;;;;;;;16.05;2.60;;;;;;;23.35;42.76;99784.16;4483172;32;33785;-67
2021/06/01 05:13:03;;;;;;;16.75;2.67;;;;;;;23.34;42.76;99780.59;4484109;32;34284;-67
2021/06/01 05:15:31;;;;;;;12.30;2.60;;;;;;;23.33;42.75;99778.94;4484573;32;34553;-68
2021/06/01 05:17:59;;;;;;;10.02;1.92;;;;;;;23.35;42.73;99784.16;4484609;32;33769;-67
2021/06/01 05:20:26;;;;;;;7.82;2.28;;;;;;;23.34;42.67;99783.31;4484239;32;34696;-68
2021/06/01 05:22:54;;;;;;;14.60;2.15;;;;;;;23.34;42.65;99785.22;4484484;32;33275;-67
2021/06/01 05:25:22;;;;;;;12.37;2.33;;;;;;;23.34;42.64;99791.50;4484211;32;33866;-68
2021/06/01 05:27:49;;;;;;;12.68;2.17;;;;;;;23.36;42.64;99793.97;4484283;32;34759;-68
2021/06/01 05:30:23;;;;;;;11.75;2.72;;;;;;;23.35;42.61;99790.44;4484217;32;33991;-68
2021/06/01 05:35:53;;;;;;;10.02;2.20;;;;;;;23.35;42.53;99795.87;4484376;32;34676;-68
2021/06/01 05:38:27;;;;;;;10.80;2.70;;;;;;;23.34;42.55;99802.37;4483049;32;34727;-67
2021/06/01 05:40:54;;;;;;;7.82;2.17;;;;;;;23.35;42.56;99803.22;4483786;32;33727;-68
2021/06/01 05:43:22;;;;;;;12.93;2.15;;;;;;;23.34;42.54;99799.66;4484284;32;33120;-67
2021/06/01 05:45:50;;;;;;;9.40;2.17;;;;;;;23.35;42.52;99803.22;4484271;32;33413;-67
2021/06/01 05:48:17;;;;;;;7.57;2.25;;;;;;;23.34;42.51;99796.94;4484106;32;34893;-66
2021/06/01 05:50:45;;;;;;;11.05;2.33;;;;;;;23.34;42.49;99802.37;4484106;32;33928;-67
2021/06/01 05:53:15;;;;;;;7.62;2.00;;;;;;;23.36;42.48;99807.59;4484293;32;33476;-67
2021/06/01 05:55:43;;;;;;;13.23;2.15;;;;;;;23.34;42.46;99807.00;4484107;32;33793;-67
2021/06/01 05:58:11;;;;;;;8.65;2.45;;;;;;;23.34;42.47;99809.72;4482682;32;33812;-68
2021/06/01 06:00:39;;;;;;;6.70;1.77;;;;;;;23.34;42.44;99804.28;4484215;32;33956;-68
2021/06/01 06:03:07;;;;;;;6.12;2.40;;;;;;;23.34;42.44;99804.28;4484177;32;33452;-67
2021/06/01 06:05:35;;;;;;;10.00;2.33;;;;;;;23.34;42.42;99809.72;4484060;32;33679;-67
2021/06/01 06:08:13;;;;;;;8.73;2.40;;;;;;;23.34;42.40;99809.72;4482916;32;33845;-67
2021/06/01 06:10:41;;;;;;;9.80;1.70;;;;;;;23.34;42.39;99809.72;4483947;32;33932;-68
2021/06/01 06:13:09;;;;;;;6.20;2.42;;;;;;;23.32;42.38;99814.59;4482534;32;34512;-67
2021/06/01 06:15:37;;;;;;;9.73;2.47;;;;;;;23.31;42.37;99816.44;4482327;32;33391;-67
2021/06/01 06:18:04;;;;;;;7.80;2.28;;;;;;;23.31;42.35;99813.72;4484134;32;33856;-67
2021/06/01 06:20:33;;;;;;;6.55;1.87;;;;;;;23.31;42.34;99821.88;4483933;32;33840;-66
2021/06/01 06:23:01;;;;;;;7.03;1.98;;;;;;;23.31;42.34;99821.06;4484004;32;33365;-67
2021/06/01 06:25:28;;;;;;;5.03;1.62;;;;;;;23.31;42.32;99819.16;4483973;32;33774;-68
2021/06/01 06:27:56;;;;;;;5.20;1.62;;;;;;;23.29;42.33;99828.63;4483984;32;33458;-67
2021/06/01 06:30:24;;;;;;;7.12;1.60;;;;;;;23.29;42.31;99817.75;4483926;32;33806;-68
2021/06/01 06:32:51;;;;;;;7.47;1.85;;;;;;;23.28;42.31;99814.19;4483842;32;33262;-67
2021/06/01 06:35:19;;;;;;;8.40;1.95;;;;;;;23.28;42.31;99819.63;4484002;32;33728;-68
2021/06/01 06:37:47;;;;;;;6.70;2.12;;;;;;;23.30;42.28;99819.41;4483867;32;33635;-68
2021/06/01 06:40:15;;;;;;;5.82;1.62;;;;;;;23.28;42.27;99827.81;4483616;32;33961;-67
2021/06/01 06:42:43;;;;;;;7.70;2.25;;;;;;;23.28;42.28;99833.25;4483891;32;33439;-67
2021/06/01 06:45:13;;;;;;;6.90;2.15;;;;;;;23.27;42.27;99822.56;4483778;32;34786;-67
2021/06/01 06:50:18;;;;;;;5.70;1.92;;;;;;;23.28;42.23;99832.41;4483525;32;33827;-67
2021/06/01 06:52:46;;;;;;;4.70;1.70;;;;;;;23.27;42.26;99817.13;4483788;32;33038;-67
2021/06/01 06:55:14;;;;;;;8.13;1.80;;;;;;;23.27;42.21;99825.28;4483462;32;33820;-67
2021/06/01 06:57:42;;;;;;;4.43;1.60;;;;;;;23.26;42.23;99823.63;4483635;32;33956;-68
2021/06/01 07:00:14;;;;;;;6.55;1.90;;;;;;;23.26;42.23;99821.72;4482357;32;33122;-67
2021/06/01 07:02:42;;;;;;;7.53;2.08;;;;;;;23.26;42.25;99820.91;4483735;32;33281;-68
2021/06/01 07:05:11;;;;;;;7.45;1.77;;;;;;;23.25;42.23;99811.91;4483447;32;33555;-67
2021/06/01 07:07:40;;;;;;;6.25;1.60;;;;;;;23.26;42.21;99810.00;4483289;32;34779;-68
2021/06/01 07:10:12;;;;;;;7.47;2.30;;;;;;;23.27;42.17;99807.09;4483431;32;33580;-67
2021/06/01 07:12:42;;;;;;;5.55;1.60;;;;;;;23.27;42.19;99811.66;4469576;32;34819;-68
2021/06/01 07:15:40;;;;;;;7.45;1.67;;;;;;;23.27;42.19;99808.94;4483112;32;33390;-68
2021/06/01 07:18:08;;;;;;;3.45;1.75;;;;;;;23.30;42.12;99812.06;4482169;32;33861;-67
2021/06/01 07:20:35;;;;;;;3.72;1.50;;;;;;;23.28;42.13;99811.47;4483379;32;35101;-68
2021/06/01 07:23:03;;;;;;;7.10;1.87;;;;;;;23.29;42.14;99812.28;4483271;32;33058;-67
2021/06/01 07:25:31;;;;;;;5.75;2.08;;;;;;;23.29;42.13;99812.28;4483112;32;33674;-67
2021/06/01 07:28:00;;;;;;;5.32;1.70;;;;;;;23.30;42.13;99813.97;4483658;32;34778;-68
2021/06/01 07:30:30;;;;;;;7.12;2.00;;;;;;;23.31;42.11;99811.00;4484985;32;34863;-67
2021/06/01 07:32:59;;;;;;;5.10;1.52;;;;;;;23.31;42.09;99808.28;4485391;32;33471;-68
2021/06/01 07:35:27;;;;;;;5.15;1.90;;;;;;;23.31;42.10;99805.56;4484029;32;33895;-66
2021/06/01 07:37:54;;;;;;;5.18;1.75;;;;;;;23.33;42.06;99810.78;4485208;32;33919;-68
2021/06/01 07:40:22;;;;;;;5.90;1.77;;;;;;;23.33;42.07;99808.06;4485022;32;34660;-68
2021/06/01 07:42:50;;;;;;;6.05;1.90;;;;;;;23.33;42.04;99808.91;4485342;32;33361;-67
2021/06/01 07:45:19;;;;;;;5.12;1.67;;;;;;;23.34;42.03;99801.56;4483895;32;34535;-67
2021/06/01 07:47:46;;;;;;;5.22;1.60;;;;;;;23.34;42.03;99813.28;4484823;32;34634;-66
2021/06/01 07:50:14;;;;;;;3.85;1.52;;;;;;;23.34;42.02;99805.09;4485045;32;33765;-67
2021/06/01 07:52:42;;;;;;;6.28;1.65;;;;;;;23.36;41.99;99807.59;4485029;32;33364;-68
2021/06/01 07:55:10;;;;;;;4.43;1.85;;;;;;;23.35;41.97;99805.94;4484822;32;33881;-67
2021/06/01 07:57:38;;;;;;;4.55;1.50;;;;;;;23.36;41.98;99808.47;4485018;32;33992;-66
2021/06/01 08:00:07;;;;;;;4.87;1.90;;;;;;;23.36;41.96;99810.31;4485013;32;33773;-68
2021/06/01 08:02:40;;;;;;;5.10;2.28;;;;;;;23.35;41.98;99809.50;4485061;32;34332;-68
2021/06/01 08:05:09;;;;;;;4.10;1.70;;;;;;;23.36;41.95;99802.16;4485209;32;33536;-67
2021/06/01 08:07:37;;;;;;;5.25;1.98;;;;;;;23.37;41.92;99806.56;4484808;32;33844;-67
2021/06/01 08:10:05;;;;;;;3.97;1.70;;;;;;;23.37;41.93;99803.84;4484830;32;33829;-68
2021/06/01 08:12:34;;;;;;;4.07;1.42;;;;;;;23.36;41.92;99805.72;4484705;32;33233;-66
2021/06/01 08:15:04;;;;;;;5.18;1.55;;;;;;;23.37;41.91;99801.13;4483630;32;34982;-67
2021/06/01 08:17:31;;;;;;;5.62;2.10;;;;;;;23.38;41.89;99805.50;4484903;32;34672;-67
2021/06/01 08:20:10;;;;;;;3.85;1.58;;;;;;;23.38;41.87;99803.59;4484753;32;34015;-67
2021/06/01 08:22:38;;;;;;;3.55;1.70;;;;;;;23.38;41.89;99808.22;4484674;32;33397;-67
2021/06/01 08:25:06;;;;;;;4.65;1.75;;;;;;;23.38;41.86;99809.06;4483638;32;33846;-67
2021/06/01 08:27:34;;;;;;;4.55;1.70;;;;;;;23.37;41.88;99810.13;4484840;32;34926;-67
2021/06/01 08:30:05;;;;;;;5.40;1.60;;;;;;;23.37;41.87;99806.56;4484794;32;33744;-68
2021/06/01 08:32:33;;;;;;;5.47;2.03;;;;;;;23.37;41.87;99804.66;4483592;32;33047;-68
2021/06/01 08:35:01;;;;;;;3.42;1.50;;;;;;;23.37;41.85;99804.66;4484591;32;33852;-67
2021/06/01 08:37:28;;;;;;;4.00;1.50;;;;;;;23.37;41.84;99803.84;4484757;32;34722;-67
2021/06/01 08:39:57;;;;;;;5.15;1.87;;;;;;;23.36;41.84;99808.47;4484810;32;33740;-68
2021/06/01 08:42:24;;;;;;;2.87;1.37;;;;;;;23.37;41.83;99812.00;4483224;32;34284;-67
2021/06/01 08:44:52;;;;;;;4.00;1.60;;;;;;;23.36;41.83;99808.47;4484611;32;33931;-67
2021/06/01 08:47:20;;;;;;;4.20;1.30;;;;;;;23.36;41.83;99811.19;4484649;32;34354;-67
2021/06/01 08:49:48;;;;;;;4.18;1.70;;;;;;;23.36;41.82;99813.91;4483475;31;34662;-67
2021/06/01 08:52:16;;;;;;;3.85;1.60;;;;;;;23.36;41.85;99815.75;4484568;32;34116;-67
2021/06/01 08:54:44;;;;;;;4.25;1.75;;;;;;;23.36;41.84;99816.63;4484553;32;33790;-68
2021/06/01 08:57:11;;;;;;;4.57;1.45;;;;;;;23.35;41.83;99814.09;4483100;32;33550;-67
2021/06/01 08:59:40;;;;;;;4.43;1.50;;;;;;;23.35;41.82;99811.37;4484689;32;35407;-68
2021/06/01 09:02:08;;;;;;;3.87;1.67;;;;;;;23.34;41.83;99818.72;4484791;32;33381;-67
2021/06/01 09:04:44;;;;;;;3.72;1.60;;;;;;;23.35;41.81;99814.09;4484717;32;33715;-68
2021/06/01 09:20:09;;;;;;;2.78;1.40;;;;;;;23.33;41.83;99800.72;4483398;32;34949;-68
2021/06/01 09:21:46;;;;;;;4.10;1.40;;;;;;;23.32;41.84;99800.97;4477725;32;33790;-67
2021/06/01 09:24:14;;;;;;;3.25;1.25;;;;;;;23.32;41.84;99801.78;4484464;32;33227;-68
2021/06/01 09:27:02;;;;;;;3.90;1.27;;;;;;;23.32;41.85;99798.25;4484288;32;33487;-67
2021/06/01 09:29:32;;;;;;;3.65;1.40;;;;;;;23.31;41.88;99799.28;4484371;32;34568;-67
2021/06/01 09:32:07;;;;;;;2.17;1.25;;;;;;;23.31;41.87;99800.09;4484174;32;33778;-68
2021/06/01 09:34:45;;;;;;;4.35;1.50;;;;;;;23.32;41.87;99800.97;4484623;32;34215;-67
2021/06/01 09:37:19;;;;;;;3.83;1.73;;;;;;;23.32;41.85;99798.25;4482844;32;33708;-67
2021/06/01 09:40:12;;;;;;;4.45;1.40;;;;;;;23.30;41.83;99793.00;4484305;32;33848;-66
2021/06/01 09:42:42;;;;;;;4.07;1.40;;;;;;;23.33;41.83;99791.72;4484312;32;33572;-67
2021/06/01 09:45:18;;;;;;;3.87;1.27;;;;;;;23.30;41.86;99786.72;4484280;32;33303;-67
2021/06/01 09:47:52;;;;;;;2.65;1.40;;;;;;;23.30;41.88;99786.72;4484067;32;33719;-68
2021/06/01 09:50:35;;;;;;;3.33;1.73;;;;;;;23.30;41.86;99784.00;4483629;32;33600;-67
2021/06/01 09:53:19;;;;;;;4.90;1.60;;;;;;;23.31;41.84;99781.06;4484149;32;34831;-67
2021/06/01 09:55:47;;;;;;;2.72;1.48;;;;;;;23.31;41.82;99778.31;4484300;32;34082;-67
2021/06/01 09:58:31;;;;;;;3.95;1.52;;;;;;;23.31;41.80;99785.66;4482859;32;33746;-68
2021/06/01 10:01:00;;;;;;;3.55;1.37;;;;;;;23.31;41.83;99782.94;4483014;32;33908;-68
2021/06/01 10:03:41;;;;;;;6.03;1.48;;;;;;;23.28;41.83;99788.84;4482857;32;33959;-69
2021/06/01 10:06:09;;;;;;;4.75;1.40;;;;;;;23.30;41.82;99782.13;4484141;32;33203;-67
2021/06/01 10:08:43;;;;;;;2.83;1.40;;;;;;;23.30;41.82;99784.84;4484010;32;33771;-67
2021/06/01 10:11:11;;;;;;;3.30;1.42;;;;;;;23.28;41.83;99786.97;4483916;32;34979;-67
2021/06/01 10:13:40;;;;;;;3.03;1.55;;;;;;;23.28;41.82;99788.84;4483843;32;34443;-68
2021/06/01 10:16:16;;;;;;;3.30;1.30;;;;;;;23.28;41.85;99791.59;4484003;32;33323;-67
2021/06/01 10:18:44;;;;;;;3.35;1.67;;;;;;;23.29;41.83;99795.97;4484010;32;34469;-67
2021/06/01 10:21:20;;;;;;;2.83;1.40;;;;;;;23.28;41.83;99795.13;4484136;32;34737;-67
2021/06/01 10:23:53;;;;;;;4.20;2.03;;;;;;;23.28;41.83;99794.31;4483966;32;33603;-67
2021/06/01 10:26:23;;;;;;;3.42;1.52;;;;;;;23.28;41.81;99797.03;4483970;32;34129;-68
2021/06/01 10:28:51;;;;;;;4.30;1.48;;;;;;;23.27;41.82;99792.63;4483659;32;33476;-68
2021/06/01 10:31:38;;;;;;;3.00;1.30;;;;;;;23.27;41.83;99795.34;4472076;32;33876;-67
2021/06/01 10:34:10;;;;;;;2.58;1.10;;;;;;;23.28;41.81;99791.59;4483733;32;33618;-68
2021/06/01 10:50:40;;;;;;;2.40;1.33;;;;;;;23.25;41.84;99795.56;4482736;32;33631;-67
2021/06/01 10:53:27;;;;;;;2.05;1.30;;;;;;;23.23;41.87;99792.25;4483637;32;34576;-67
2021/06/01 10:58:45;;;;;;;3.30;1.60;;;;;;;23.24;41.85;99798.53;4483886;32;33243;-68
2021/06/01 11:04:24;;;;;;;4.90;1.40;;;;;;;23.23;41.83;99792.25;4483558;32;34592;-67
2021/06/01 11:09:34;;;;;;;1.80;1.12;;;;;;;23.22;41.87;99792.47;4483572;32;33453;-67
2021/06/01 11:12:16;;;;;;;3.08;1.37;;;;;;;23.22;41.85;99785.13;4483213;32;33834;-67
2021/06/01 11:14:57;;;;;;;2.92;1.17;;;;;;;23.23;41.85;99786.81;4483385;32;34665;-68
2021/06/01 11:17:35;;;;;;;3.12;1.27;;;;;;;23.24;41.84;99787.63;4483345;32;33849;-68
2021/06/01 11:20:13;;;;;;;2.17;1.10;;;;;;;23.22;41.85;99787.84;4483423;32;33272;-67
2021/06/01 11:22:57;;;;;;;4.82;1.30;;;;;;;23.22;41.85;99776.97;4483319;32;33722;-67
2021/06/01 11:33:34;;;;;;;2.37;1.40;;;;;;;23.22;41.83;99779.69;4483027;32;33766;-66
2021/06/01 11:36:11;;;;;;;2.50;1.10;;;;;;;23.22;41.83;99773.41;4482965;32;33855;-67
2021/06/01 11:38:55;;;;;;;2.12;1.10;;;;;;;23.23;41.83;99769.66;4481864;32;34681;-67
2021/06/01 11:44:20;;;;;;;3.28;1.10;;;;;;;23.22;41.81;99774.22;4482940;32;34343;-68
2021/06/01 11:52:07;;;;;;;2.22;1.40;;;;;;;23.22;41.81;99771.50;4482729;32;34795;-67
2021/06/01 11:54:35;;;;;;;2.33;1.00;;;;;;;23.22;41.80;99768.78;4482813;32;33748;-67
2021/06/01 11:57:26;;;;;;;2.03;1.00;;;;;;;23.22;41.79;99765.25;4482742;32;34857;-67
2021/06/01 12:02:56;;;;;;;3.47;1.40;;;;;;;23.24;41.76;99765.88;4482730;32;34153;-67
2021/06/01 12:11:21;;;;;;;2.55;1.12;;;;;;;23.23;41.79;99770.47;4482322;32;34565;-67
2021/06/01 12:14:02;;;;;;;6.00;1.40;;;;;;;23.23;41.79;99772.37;4481441;32;34254;-68
2021/06/01 12:19:19;;;;;;;4.12;1.60;;;;;;;23.21;41.81;99775.31;4484701;32;33823;-67
2021/06/01 12:21:49;;;;;;;9.10;1.42;;;;;;;23.23;41.81;99772.37;4484873;32;34808;-67
2021/06/01 12:24:27;;;;;;;7.80;1.62;;;;;;;23.21;41.82;99778.03;4483738;32;33337;-67
2021/06/01 12:32:35;;;;;;;10.48;2.30;;;;;;;23.24;41.66;99776.75;4484943;32;34569;-68
2021/06/01 13:12:21;;;;;;;7.75;1.60;;;;;;;23.32;42.18;99752.78;4484335;32;33792;-64
2021/06/01 13:20:39;;;;;;;7.40;1.87;;;;;;;23.40;42.13;99757.06;4482858;32;34156;-65
2021/06/01 13:51:29;;;;;;;2.55;1.25;;;;;;;23.35;42.27;99735.16;4484276;32;33896;-66
2021/06/01 13:56:07;;;;;;;2.67;1.30;;;;;;;23.36;42.24;99720.47;4484534;32;33808;-67
2021/06/01 14:01:10;;;;;;;7.72;2.20;;;;;;;23.34;42.19;99717.97;4484172;32;33822;-67
2021/06/01 15:30:06;;;;;;;7.65;1.87;;;;;;;23.39;42.65;99726.31;4481953;32;34848;-67
2021/06/01 15:47:41;;;;;;;8.20;1.98;;;;;;;23.39;42.72;99733.63;4482997;32;33739;-67
2021/06/01 15:49:58;;;;;;;12.50;2.20;;;;;;;23.43;42.71;99729.41;4483735;32;33585;-66
2021/06/01 16:31:26;;;;;;;6.87;2.17;;;;;;;23.41;42.57;99731.53;4468964;32;34789;-67
2021/06/01 17:04:46;;;;;;;11.77;2.62;;;;;;;23.45;42.83;99732.72;4468562;32;35322;-67
2021/06/01 17:07:26;;;;;;;7.57;2.20;;;;;;;23.46;42.86;99734.41;4468635;32;33952;-66
2021/06/01 17:12:46;;;;;;;11.63;2.17;;;;;;;23.49;42.91;99744.00;4467265;32;33305;-66
2021/06/01 17:15:15;;;;;;;;;;;;;;;23.48;42.94;99735.00;4468832;32;33554;-66
2021/06/01 17:17:48;;;;;;;11.95;2.05;;;;;;;23.59;42.65;99744.28;4471562;32;33923;-67